Agana Heights, GU (96910)

10:31 PM ChST on August 30, 2015 (GMT +1000)
Maite | | Change Station
CLOSE
Current Station
Personal Weather Station
Location: Maite, GU
Elevation: 140 ft
Nearby Weather Stations
Active Advisory: High Surf Advisory

Elev 140 ft 13.48 °N, 144.76 °E | Updated 10 seconds ago

Partly Cloudy
Partly Cloudy
80.7 °F
Feels Like 88 °F
N
2.0
Wind Variable Wind from SE
Gusts 4.0 mph

Today
High -- | Low -- °F
--% Chance of Precip.
Yesterday
High -- | Low -- °F
Precip. -- in
6:09 AM 6:34 PM
Full, 99% visible
Pressure 29.86 in
Visibility 10.0 miles
Clouds Few 1800 ft
Heat Index 88 °F
Dew Point 78 °F
Humidity 91%
Rainfall 0.04 in
Snow Depth Not available.
UV 0.0 out of 12
Pollen Not available.
Air Quality Not available.
Flu Activity Not available.
METAR PGUM 301154Z 05005KT 10SM FEW018 27/25 A2988 RMK AO2 SLP112 70010 T02670250 10306 20261 51023 $
Pressure 29.86 in
Visibility 10.0 miles
Clouds Few 1800 ft
Heat Index 88 °F
Dew Point 78 °F
Humidity 91%
Rainfall 0.04 in
Snow Depth Not available.
UV 0.0 out of 12
Pollen Not available.
Air Quality Not available.
Flu Activity Not available.
METAR PGUM 301154Z 05005KT 10SM FEW018 27/25 A2988 RMK AO2 SLP112 70010 T02670250 10306 20261 51023 $

10-Day Weather Forecast

×

Almanac

Astronomy

Aug. 30, 2015 Rise Set
Actual Time
Civil Twilight
Nautical Twilight
Astronomical Twilight
Moon
Length of Visible Light
Length of Day
Tomorrow will be .
, % of the Moon is Illuminated

Today's Extremes

State Highs State Lows

Community

WunderPhotos

Upload Photos

1,850,940 photos uploaded!

WunderBlogs® & News

Nearby

Air Quality

  Air Quality AQ Index Pollutant
Not available.

Snow Depth

Station Depth Elevation

Earthquake Activity

City Distance Mag. Time & Date
Minimum magnitude displayed is 2.5.

Coastal Water Temperatures

Place Temperature

Stations

Nearby Weather Stations

Station Location Temp. Windchill Dew Point Humidity Wind Precip. Elev Updated Type
                   
High Surf Advisory
Statement as of 3:05 PM GMT on August 30, 2015

... High surf advisory now in effect along north facing reefs
until 6 am chst Monday...

Expect hazardous surf of 7 to 9 feet along north facing reefs
tonight... falling below hazardous levels by early Monday morning.

Precautionary/preparedness actions...

Avoid venturing near exposed reefs and beaches... especially those
facing north... as rip currents will be life threatening.